createdAt,value
2019-02-16T00:02:17.865Z,16.23
2019-02-16T00:04:46.281Z,14.07
2019-02-16T00:07:14.670Z,16.17
2019-02-16T00:09:43.083Z,14.53
2019-02-16T00:12:11.500Z,15.00
2019-02-16T00:14:39.890Z,16.57
2019-02-16T00:17:08.287Z,17.77
2019-02-16T00:19:36.683Z,13.67
2019-02-16T00:22:05.058Z,17.83
2019-02-16T00:24:33.481Z,16.13
2019-02-16T00:27:01.843Z,17.70
2019-02-16T00:29:30.253Z,18.83
2019-02-16T00:31:58.667Z,18.23
2019-02-16T00:34:27.042Z,20.53
2019-02-16T00:36:55.440Z,18.93
2019-02-16T00:39:23.833Z,21.60
2019-02-16T00:41:52.238Z,18.77
2019-02-16T00:44:20.654Z,16.60
2019-02-16T00:46:49.051Z,15.77
2019-02-16T00:49:17.464Z,20.40
2019-02-16T00:51:45.830Z,17.30
2019-02-16T00:54:14.235Z,17.43
2019-02-16T00:56:42.607Z,18.47
2019-02-16T00:59:11.007Z,16.33
2019-02-16T01:01:39.408Z,20.40
2019-02-16T01:04:07.815Z,20.83
2019-02-16T01:06:36.225Z,18.70
2019-02-16T01:09:05.523Z,21.43
2019-02-16T01:11:33.923Z,21.80
2019-02-16T01:14:02.305Z,19.83
2019-02-16T01:16:30.738Z,17.80
2019-02-16T01:18:59.121Z,17.93
2019-02-16T01:21:27.518Z,19.63
2019-02-16T01:23:55.894Z,19.17
2019-02-16T01:26:24.300Z,19.27
2019-02-16T01:28:52.684Z,20.97
2019-02-16T01:31:21.118Z,21.03
2019-02-16T01:33:49.591Z,20.43
2019-02-16T01:36:18.027Z,18.80
2019-02-16T01:38:46.484Z,21.20
2019-02-16T01:41:14.940Z,20.93
2019-02-16T01:43:43.416Z,18.40
2019-02-16T01:46:11.783Z,20.50
2019-02-16T01:48:40.196Z,17.13
2019-02-16T01:51:08.611Z,18.83
2019-02-16T01:53:37.082Z,20.23
2019-02-16T01:56:05.519Z,19.00
2019-02-16T01:58:33.976Z,20.63
2019-02-16T02:01:02.413Z,18.10
2019-02-16T02:03:30.833Z,21.90
2019-02-16T02:05:59.306Z,20.40
2019-02-16T02:08:27.751Z,19.60
2019-02-16T02:10:56.201Z,22.37
2019-02-16T02:13:24.626Z,22.03
2019-02-16T02:15:53.057Z,21.60
2019-02-16T02:18:21.509Z,22.00
2019-02-16T02:20:49.943Z,22.73
2019-02-16T02:23:18.396Z,23.10
2019-02-16T02:25:46.833Z,22.30
2019-02-16T02:28:15.281Z,22.27
2019-02-16T02:30:43.706Z,20.93
2019-02-16T02:33:12.167Z,20.87
2019-02-16T02:35:40.625Z,24.60
2019-02-16T02:38:09.046Z,21.73
2019-02-16T02:40:37.509Z,20.07
2019-02-16T02:43:05.976Z,22.33
2019-02-16T02:45:34.424Z,22.20
2019-02-16T02:48:02.884Z,24.33
2019-02-16T02:50:31.347Z,21.53
2019-02-16T02:52:59.808Z,22.27
2019-02-16T02:55:28.232Z,21.90
2019-02-16T02:57:56.710Z,21.83
2019-02-16T03:00:25.198Z,21.80
2019-02-16T03:02:53.690Z,22.43
2019-02-16T03:05:22.161Z,24.00
2019-02-16T03:07:50.614Z,22.77
2019-02-16T03:10:19.054Z,21.53
2019-02-16T03:12:47.505Z,25.27
2019-02-16T03:15:15.958Z,24.43
2019-02-16T03:17:44.413Z,24.30
2019-02-16T03:20:12.837Z,25.27
2019-02-16T03:23:12.496Z,22.60
2019-02-16T03:25:43.304Z,21.30
2019-02-16T03:28:33.214Z,24.90
2019-02-16T03:31:11.017Z,24.80
2019-02-16T03:33:45.309Z,24.43
2019-02-16T03:36:45.667Z,21.90
2019-02-16T03:39:15.600Z,21.90
2019-02-16T03:41:44.054Z,21.77
2019-02-16T03:44:12.490Z,23.07
2019-02-16T03:46:40.939Z,23.10
2019-02-16T03:49:09.405Z,28.00
2019-02-16T03:51:37.847Z,21.97
2019-02-16T03:54:06.302Z,23.10
2019-02-16T03:56:34.739Z,24.60
2019-02-16T03:59:03.192Z,25.83
2019-02-16T04:01:31.650Z,24.57
2019-02-16T04:04:00.113Z,25.77
2019-02-16T04:06:28.561Z,23.73
2019-02-16T04:08:56.986Z,26.80
2019-02-16T04:11:25.442Z,23.23
2019-02-16T04:13:53.937Z,26.07
2019-02-16T04:16:22.395Z,23.83
2019-02-16T04:18:50.799Z,23.47
2019-02-16T04:21:19.230Z,25.33
2019-02-16T04:23:47.676Z,25.03
2019-02-16T04:26:16.144Z,22.47
2019-02-16T04:28:44.545Z,21.73
2019-02-16T04:31:12.928Z,25.83
2019-02-16T04:33:41.337Z,22.03
2019-02-16T04:36:09.717Z,23.63
2019-02-16T04:38:38.091Z,26.43
2019-02-16T04:41:06.499Z,21.90
2019-02-16T04:43:34.880Z,28.97
2019-02-16T04:46:03.285Z,22.80
2019-02-16T04:48:31.671Z,22.93
2019-02-16T04:51:00.066Z,23.63
2019-02-16T04:53:28.449Z,23.90
2019-02-16T04:55:56.854Z,29.70
2019-02-16T04:58:25.235Z,25.17
2019-02-16T05:00:53.630Z,24.27
2019-02-16T05:03:22.040Z,24.13
2019-02-16T05:05:50.421Z,23.37
2019-02-16T05:08:18.826Z,25.47
2019-02-16T05:10:47.201Z,27.50
2019-02-16T05:13:15.614Z,24.10
2019-02-16T05:15:43.990Z,27.60
2019-02-16T05:18:12.392Z,26.67
2019-02-16T05:20:40.780Z,28.50
2019-02-16T05:23:09.198Z,29.63
2019-02-16T05:25:37.590Z,27.67
2019-02-16T05:28:05.973Z,25.23
2019-02-16T05:30:34.375Z,25.00
2019-02-16T05:33:05.710Z,25.90
2019-02-16T05:35:34.102Z,25.30
2019-02-16T05:38:02.484Z,24.83
2019-02-16T05:40:30.888Z,24.30
2019-02-16T05:42:59.283Z,23.60
2019-02-16T05:45:27.660Z,28.73
2019-02-16T05:47:56.062Z,28.57
2019-02-16T05:50:24.471Z,24.47
2019-02-16T05:52:54.650Z,27.03
2019-02-16T05:55:22.947Z,26.50
2019-02-16T05:57:51.329Z,25.90
2019-02-16T06:00:21.376Z,23.00
2019-02-16T06:02:49.771Z,26.87
2019-02-16T06:05:18.152Z,24.20
2019-02-16T06:07:46.502Z,26.10
2019-02-16T06:10:14.909Z,24.87
2019-02-16T06:12:43.318Z,29.63
2019-02-16T06:15:11.693Z,22.73
2019-02-16T06:17:40.102Z,25.27
2019-02-16T06:20:09.136Z,24.17
2019-02-16T06:22:37.545Z,24.83
2019-02-16T06:25:06.303Z,25.40
2019-02-16T06:27:34.672Z,31.53
2019-02-16T06:30:03.167Z,28.47
2019-02-16T06:32:31.555Z,26.97
2019-02-16T06:35:01.617Z,26.10
2019-02-16T06:37:30.004Z,30.03
2019-02-16T06:39:58.436Z,26.90
2019-02-16T06:42:26.827Z,26.80
2019-02-16T06:44:55.217Z,25.53
2019-02-16T06:47:23.714Z,28.63
2019-02-16T06:49:52.088Z,28.20
2019-02-16T06:52:20.504Z,26.07
2019-02-16T06:54:48.907Z,28.93
2019-02-16T06:57:21.899Z,30.23
2019-02-16T06:59:50.311Z,32.03
2019-02-16T07:02:19.340Z,25.73
2019-02-16T07:04:47.676Z,27.60
2019-02-16T07:07:16.156Z,25.67
2019-02-16T07:09:44.535Z,29.07
2019-02-16T07:12:12.932Z,26.17
2019-02-16T07:14:41.307Z,27.27
2019-02-16T07:17:20.603Z,24.67
2019-02-16T07:19:50.859Z,30.50
2019-02-16T07:22:19.274Z,28.33
2019-02-16T07:24:47.700Z,28.40
2019-02-16T07:27:16.077Z,28.87
2019-02-16T07:29:44.488Z,25.20
2019-02-16T07:32:12.895Z,29.00
2019-02-16T07:34:41.274Z,26.30
2019-02-16T07:37:09.665Z,29.70
2019-02-16T07:39:38.094Z,31.30
2019-02-16T07:42:06.483Z,27.20
2019-02-16T07:44:42.202Z,25.70
2019-02-16T07:47:12.232Z,28.37
2019-02-16T07:49:42.277Z,27.87
2019-02-16T07:52:15.264Z,27.20
2019-02-16T07:54:45.275Z,28.77
2019-02-16T07:57:15.320Z,30.10
2019-02-16T07:59:48.023Z,24.63
2019-02-16T08:02:18.077Z,26.90
2019-02-16T08:05:03.327Z,29.07
2019-02-16T08:07:33.336Z,26.33
2019-02-16T08:10:12.246Z,25.73
2019-02-16T08:12:42.267Z,27.77
2019-02-16T08:15:12.312Z,28.53
2019-02-16T08:17:42.337Z,30.90
2019-02-16T08:20:12.410Z,28.37
2019-02-16T08:22:42.422Z,30.23
2019-02-16T08:25:21.368Z,27.63
2019-02-16T08:27:51.358Z,25.83
2019-02-16T08:30:21.411Z,30.97
2019-02-16T08:32:54.453Z,27.10
2019-02-16T08:35:24.495Z,29.10
2019-02-16T08:37:54.583Z,27.90
2019-02-16T08:40:27.253Z,28.27
2019-02-16T08:43:00.107Z,29.10
2019-02-16T08:45:46.296Z,27.57
2019-02-16T08:48:16.329Z,25.23
2019-02-16T08:50:49.469Z,30.20
2019-02-16T08:53:19.452Z,26.80
2019-02-16T08:55:49.470Z,28.07
2019-02-16T08:58:25.427Z,28.80
2019-02-16T09:01:10.228Z,28.97
2019-02-16T09:03:46.044Z,26.60
2019-02-16T09:06:22.075Z,26.47
2019-02-16T09:08:52.127Z,24.73
2019-02-16T09:11:38.551Z,25.60
2019-02-16T09:14:08.605Z,28.13
2019-02-16T09:16:55.079Z,26.73
2019-02-16T09:19:41.514Z,29.00
2019-02-16T09:22:13.412Z,25.23
2019-02-16T09:24:43.246Z,28.57
2019-02-16T09:27:19.230Z,29.63
2019-02-16T09:29:49.245Z,25.87
2019-02-16T09:32:19.278Z,30.07
2019-02-16T09:34:49.327Z,25.73
2019-02-16T09:37:22.090Z,29.20
2019-02-16T09:39:57.818Z,31.17
2019-02-16T09:42:45.944Z,29.37
2019-02-16T09:45:21.930Z,27.67
2019-02-16T09:47:51.955Z,29.03
2019-02-16T09:50:24.813Z,28.70
2019-02-16T09:52:57.747Z,31.20
2019-02-16T09:55:33.669Z,27.47
2019-02-16T09:58:18.739Z,26.27
2019-02-16T10:01:05.220Z,29.37
2019-02-16T10:03:43.871Z,30.83
2019-02-16T10:06:19.814Z,25.07
2019-02-16T10:08:52.474Z,31.57
2019-02-16T10:11:22.466Z,26.53
2019-02-16T10:14:08.735Z,27.70
2019-02-16T10:16:38.695Z,30.57
2019-02-16T10:19:08.745Z,28.53
2019-02-16T10:21:47.706Z,26.97
2019-02-16T10:24:23.752Z,27.47
2019-02-16T10:26:56.728Z,29.27
2019-02-16T10:29:43.152Z,29.60
2019-02-16T10:32:13.189Z,26.97
2019-02-16T10:34:45.580Z,28.07
2019-02-16T10:37:34.085Z,29.70
2019-02-16T10:40:16.123Z,28.00
2019-02-16T10:42:54.682Z,29.67
2019-02-16T10:45:40.979Z,28.57
2019-02-16T10:48:10.990Z,29.37
2019-02-16T10:50:41.035Z,23.47
2019-02-16T10:53:29.434Z,25.20
2019-02-16T10:56:08.893Z,27.70
2019-02-16T10:58:55.250Z,28.83
2019-02-16T11:01:31.477Z,28.43
2019-02-16T11:04:07.403Z,29.77
2019-02-16T11:06:55.550Z,27.30
2019-02-16T11:09:31.526Z,27.53
2019-02-16T11:12:16.799Z,30.27
2019-02-16T11:15:03.434Z,28.13
2019-02-16T11:17:36.142Z,30.80
2019-02-16T11:20:08.353Z,27.93
2019-02-16T11:22:54.622Z,25.77
2019-02-16T11:25:41.120Z,30.20
2019-02-16T11:28:26.303Z,30.77
2019-02-16T11:31:05.114Z,30.53
2019-02-16T11:33:44.121Z,26.47
2019-02-16T11:36:14.211Z,33.33
2019-02-16T11:38:46.740Z,27.97
2019-02-16T11:41:18.960Z,30.07
2019-02-16T11:43:48.486Z,28.03
2019-02-16T11:46:30.308Z,28.47
2019-02-16T11:49:00.319Z,32.97
2019-02-16T11:51:38.862Z,27.70
2019-02-16T11:54:14.712Z,29.03
2019-02-16T11:56:44.732Z,26.73
2019-02-16T11:59:14.782Z,26.23
2019-02-16T12:01:44.799Z,28.40
2019-02-16T12:04:29.800Z,32.33
2019-02-16T12:07:18.047Z,28.07
2019-02-16T12:10:05.996Z,27.93
2019-02-16T12:12:51.105Z,29.77
2019-02-16T12:15:39.159Z,30.87
2019-02-16T12:18:17.918Z,29.73
2019-02-16T12:21:04.209Z,29.50
2019-02-16T12:23:34.223Z,28.63
2019-02-16T12:26:04.288Z,30.93
2019-02-16T12:28:52.266Z,26.70
2019-02-16T12:31:22.250Z,26.77
2019-02-16T12:36:45.723Z,28.83
2019-02-16T12:39:33.829Z,28.17
2019-02-16T12:42:03.866Z,26.87
2019-02-16T12:44:34.179Z,27.07
2019-02-16T12:47:12.718Z,26.63
2019-02-16T12:49:54.942Z,27.50
2019-02-16T12:52:27.969Z,30.50
2019-02-16T12:55:14.380Z,28.07
2019-02-16T12:57:44.174Z,28.33
2019-02-16T13:00:17.229Z,25.80
2019-02-16T13:02:59.577Z,28.70
2019-02-16T13:05:32.613Z,31.00
2019-02-16T13:08:05.706Z,29.60
2019-02-16T13:10:51.909Z,26.83
2019-02-16T13:13:30.826Z,25.13
2019-02-16T13:16:15.901Z,29.13
2019-02-16T13:19:00.925Z,27.53
2019-02-16T13:21:30.935Z,31.67
2019-02-16T13:24:00.978Z,27.90
2019-02-16T13:26:47.428Z,29.90
2019-02-16T13:29:29.411Z,27.80
2019-02-16T13:32:11.607Z,25.33
2019-02-16T13:34:47.178Z,29.93
2019-02-16T13:37:20.154Z,27.53
2019-02-16T13:39:50.188Z,27.13
2019-02-16T13:42:23.032Z,26.43
2019-02-16T13:44:55.803Z,28.50
2019-02-16T13:47:25.817Z,28.57
2019-02-16T13:49:58.585Z,30.07
2019-02-16T13:52:28.584Z,29.10
2019-02-16T13:55:14.857Z,26.97
2019-02-16T13:57:44.883Z,30.40
2019-02-16T14:00:20.727Z,30.77
2019-02-16T14:02:59.926Z,29.50
2019-02-16T14:05:29.982Z,27.00
2019-02-16T14:08:00.037Z,28.27
2019-02-16T14:10:33.073Z,26.70
2019-02-16T14:13:19.308Z,26.80
2019-02-16T14:15:54.798Z,28.17
2019-02-16T14:18:23.264Z,29.57
2019-02-16T14:20:51.631Z,27.53
2019-02-16T14:23:20.022Z,29.07
2019-02-16T14:25:48.427Z,33.90
2019-02-16T14:28:16.828Z,31.30
2019-02-16T14:30:45.254Z,28.67
2019-02-16T14:33:13.658Z,28.73
2019-02-16T14:35:42.050Z,26.23
2019-02-16T14:38:12.073Z,31.53
2019-02-16T14:40:40.492Z,32.60
2019-02-16T14:43:08.899Z,28.43
2019-02-16T14:45:38.937Z,35.20
2019-02-16T14:48:07.357Z,32.53
2019-02-16T14:50:35.730Z,30.90
2019-02-16T14:53:04.150Z,32.30
2019-02-16T14:55:32.550Z,34.63
2019-02-16T14:58:00.966Z,29.90
2019-02-16T15:00:29.415Z,28.67
2019-02-16T15:02:57.824Z,34.37
2019-02-16T15:05:26.214Z,29.90
2019-02-16T15:07:54.649Z,28.50
2019-02-16T15:10:23.058Z,34.10
2019-02-16T15:12:51.467Z,32.00
2019-02-16T15:15:19.868Z,29.50
2019-02-16T15:17:48.255Z,32.83
2019-02-16T15:20:17.199Z,34.30
2019-02-16T15:22:45.593Z,28.43
2019-02-16T15:25:13.980Z,28.13
2019-02-16T15:27:42.386Z,29.87
2019-02-16T15:30:17.126Z,31.60
2019-02-16T15:32:45.537Z,32.63
2019-02-16T15:35:13.927Z,33.03
2019-02-16T15:37:42.330Z,32.53
2019-02-16T15:40:11.131Z,31.80
2019-02-16T15:42:39.525Z,31.57
2019-02-16T15:45:12.823Z,28.40
2019-02-16T15:47:41.222Z,30.53
2019-02-16T15:50:12.335Z,30.57
2019-02-16T15:52:40.698Z,31.53
2019-02-16T15:55:10.754Z,38.17
2019-02-16T15:57:39.159Z,33.50
2019-02-16T16:00:12.184Z,42.60
2019-02-16T16:02:40.525Z,34.43
2019-02-16T16:05:08.944Z,33.97
2019-02-16T16:07:38.070Z,33.60
2019-02-16T16:10:25.315Z,36.63
2019-02-16T16:12:58.244Z,32.70
2019-02-16T16:15:46.011Z,36.37
2019-02-16T16:18:16.006Z,34.17
2019-02-16T16:20:46.052Z,35.17
2019-02-16T16:23:32.287Z,33.73
2019-02-16T16:26:19.347Z,37.27
2019-02-16T16:28:49.070Z,35.50
2019-02-16T16:31:21.791Z,35.23
2019-02-16T16:33:54.499Z,39.53
2019-02-16T16:36:33.247Z,36.23
2019-02-16T16:39:15.221Z,34.40
2019-02-16T16:41:45.273Z,37.73
2019-02-16T16:44:15.300Z,35.50
2019-02-16T16:46:54.540Z,34.10
2019-02-16T16:49:24.597Z,37.80
2019-02-16T16:51:57.230Z,41.27
2019-02-16T16:54:39.178Z,35.87
2019-02-16T16:57:14.903Z,37.07
2019-02-16T16:59:44.956Z,36.10
2019-02-16T17:02:31.501Z,37.00
2019-02-16T17:05:04.045Z,38.27
2019-02-16T17:07:34.166Z,37.23
2019-02-16T17:10:10.154Z,36.57
2019-02-16T17:12:56.355Z,39.90
2019-02-16T17:15:38.344Z,39.93
2019-02-16T17:18:23.542Z,38.83
2019-02-16T17:21:08.509Z,42.23
2019-02-16T17:23:50.437Z,39.57
2019-02-16T17:26:38.091Z,37.47
2019-02-16T17:29:16.972Z,46.07
2019-02-16T17:31:53.232Z,40.60
2019-02-16T17:34:39.757Z,34.10
2019-02-16T17:37:26.099Z,38.40
2019-02-16T17:40:04.879Z,38.00
2019-02-16T17:42:34.893Z,42.67
2019-02-16T17:45:22.062Z,37.07
2019-02-16T17:48:12.336Z,38.20
2019-02-16T17:50:42.375Z,39.03
2019-02-16T17:53:12.403Z,38.17
2019-02-16T17:55:45.407Z,35.53
2019-02-16T17:58:18.347Z,36.27
2019-02-16T18:00:51.096Z,36.70
2019-02-16T18:03:29.783Z,39.77
2019-02-16T18:06:08.857Z,41.43
2019-02-16T18:08:57.043Z,40.10
2019-02-16T18:11:43.443Z,41.57
2019-02-16T18:14:13.504Z,41.40
2019-02-16T18:17:01.854Z,39.83
2019-02-16T18:19:31.921Z,39.87
2019-02-16T18:22:04.961Z,39.83
2019-02-16T18:24:44.146Z,39.10
2019-02-16T18:27:16.901Z,37.60
2019-02-16T18:29:46.941Z,40.07
2019-02-16T18:32:31.915Z,40.30
2019-02-16T18:35:23.930Z,40.83
2019-02-16T18:38:01.947Z,36.93
2019-02-16T18:40:31.958Z,42.00
2019-02-16T18:43:18.496Z,38.30
2019-02-16T18:46:04.986Z,37.20
2019-02-16T18:48:50.233Z,38.63
2019-02-16T18:51:23.199Z,38.30
2019-02-16T18:53:56.225Z,41.63
2019-02-16T18:56:32.180Z,38.17
2019-02-16T18:59:08.515Z,38.47
2019-02-16T19:01:38.562Z,40.40
2019-02-16T19:04:11.582Z,42.97
2019-02-16T19:06:47.304Z,38.63
2019-02-16T19:09:17.357Z,41.47
2019-02-16T19:11:47.370Z,44.97
2019-02-16T19:14:23.334Z,40.83
2019-02-16T19:16:53.397Z,43.40
2019-02-16T19:19:39.440Z,42.80
2019-02-16T19:22:27.419Z,43.70
2019-02-16T19:25:03.463Z,38.20
2019-02-16T19:27:45.553Z,37.53
2019-02-16T19:30:15.594Z,41.43
2019-02-16T19:32:54.452Z,40.13
2019-02-16T19:35:24.501Z,35.63
2019-02-16T19:37:54.514Z,42.47
2019-02-16T19:40:36.492Z,40.23
2019-02-16T19:43:06.510Z,40.33
2019-02-16T19:45:42.537Z,40.73
2019-02-16T19:48:12.589Z,41.33
2019-02-16T19:50:51.600Z,44.83
2019-02-16T19:53:27.470Z,39.67
2019-02-16T19:56:06.680Z,42.77
2019-02-16T19:58:39.667Z,38.00
2019-02-16T20:01:25.925Z,42.57
2019-02-16T20:03:55.939Z,42.83
2019-02-16T20:06:28.630Z,44.10
2019-02-16T20:08:58.645Z,43.93
2019-02-16T20:11:31.656Z,42.73
2019-02-16T20:14:07.867Z,39.77
2019-02-16T20:16:43.844Z,41.27
2019-02-16T20:19:16.398Z,39.70
2019-02-16T20:21:52.347Z,40.13
2019-02-16T20:24:25.059Z,41.17
2019-02-16T20:26:58.044Z,42.30
2019-02-16T20:29:28.080Z,38.77
2019-02-16T20:31:58.107Z,40.23
2019-02-16T20:34:34.149Z,39.70
2019-02-16T20:37:20.312Z,42.83
2019-02-16T20:40:06.801Z,44.93
2019-02-16T20:42:45.935Z,43.83
2019-02-16T20:45:18.984Z,38.67
2019-02-16T20:47:51.883Z,39.70
2019-02-16T20:50:33.876Z,42.97
2019-02-16T20:53:03.856Z,41.00
2019-02-16T20:55:33.885Z,40.67
2019-02-16T20:58:03.934Z,39.40
2019-02-16T21:00:33.978Z,45.07
2019-02-16T21:03:06.745Z,40.87
2019-02-16T21:05:45.587Z,40.70
2019-02-16T21:08:24.683Z,42.00
2019-02-16T21:10:57.453Z,42.97
2019-02-16T21:13:27.463Z,45.40
2019-02-16T21:16:03.351Z,42.30
2019-02-16T21:18:36.104Z,43.47
2019-02-16T21:21:22.713Z,40.87
2019-02-16T21:23:52.745Z,40.00
2019-02-16T21:26:22.766Z,38.90
2019-02-16T21:29:09.079Z,39.37
2019-02-16T21:31:48.358Z,40.03
2019-02-16T21:34:24.213Z,43.53
2019-02-16T21:36:57.245Z,43.40
2019-02-16T21:39:27.277Z,35.63
2019-02-16T21:42:03.061Z,42.07
2019-02-16T21:44:51.407Z,48.20
2019-02-16T21:47:30.066Z,41.93
2019-02-16T21:50:16.363Z,43.53
2019-02-16T21:52:46.380Z,44.07
2019-02-16T21:55:19.105Z,43.83
2019-02-16T21:58:07.595Z,44.27
2019-02-16T22:00:29.906Z,43.90
2019-02-16T22:03:12.155Z,46.47
2019-02-16T22:05:44.539Z,46.30
2019-02-16T22:08:17.456Z,40.80
2019-02-16T22:10:53.194Z,43.73
2019-02-16T22:13:21.576Z,43.13
2019-02-16T22:15:49.988Z,44.60
2019-02-16T22:18:18.359Z,42.73
2019-02-16T22:20:46.759Z,47.13
2019-02-16T22:23:15.160Z,41.53
2019-02-16T22:25:43.538Z,49.70
2019-02-16T22:28:18.813Z,41.67
2019-02-16T22:30:41.964Z,45.60
2019-02-16T22:33:10.376Z,48.17
2019-02-16T22:35:38.775Z,43.40
2019-02-16T22:38:07.167Z,41.50
2019-02-16T22:40:35.575Z,44.80
2019-02-16T22:43:03.948Z,43.83
2019-02-16T22:45:32.356Z,50.97
2019-02-16T22:48:00.756Z,46.40
2019-02-16T22:50:29.181Z,45.47
2019-02-16T22:52:57.554Z,45.20
2019-02-16T22:55:25.931Z,48.60
2019-02-16T22:57:54.344Z,46.67
2019-02-16T23:00:40.684Z,51.87
2019-02-16T23:03:09.070Z,48.63
2019-02-16T23:05:37.448Z,47.37
2019-02-16T23:08:05.838Z,48.43
2019-02-16T23:10:34.237Z,46.27
2019-02-16T23:13:02.625Z,51.17
2019-02-16T23:15:31.031Z,50.80
2019-02-16T23:17:59.401Z,49.33
2019-02-16T23:20:27.803Z,48.90
2019-02-16T23:22:56.217Z,47.90
2019-02-16T23:25:24.583Z,52.20
2019-02-16T23:27:53.869Z,51.80
2019-02-16T23:30:22.436Z,45.93
2019-02-16T23:32:50.830Z,50.33
2019-02-16T23:35:19.230Z,49.73
2019-02-16T23:37:47.641Z,50.90
2019-02-16T23:40:16.043Z,48.47
2019-02-16T23:42:44.461Z,45.23
2019-02-16T23:45:12.855Z,51.13
2019-02-16T23:47:41.232Z,45.23
2019-02-16T23:50:10.771Z,44.40
2019-02-16T23:52:39.172Z,44.80
2019-02-16T23:55:11.239Z,47.40
2019-02-16T23:57:39.590Z,45.90
